Time;durP1;ratioP1;P1;durP2;ratioP2;P2;SDS_P1;SDS_P2;PMS_P1;PMS_P2;Temp;Humidity;BMP_temperature;BMP_pressure;BME280_temperature;BME280_humidity;BME280_pressure;Samples;Min_cycle;Max_cycle;Signal;HPM_P1;HPM_P2
2021/04/30 00:00:09;;;;;;;41.30;14.82;;;7.00;99.90;;;;;;4128748;28;20046;-78
2021/04/30 00:02:09;;;;;;;36.63;15.75;;;7.00;99.90;;;;;;4161503;28;20120;-78
2021/04/30 00:04:10;;;;;;;34.55;15.90;;;7.00;99.90;;;;;;4144729;28;20382;-78
2021/04/30 00:06:11;;;;;;;40.15;16.25;;;7.00;99.90;;;;;;4159182;28;20428;-78
2021/04/30 00:08:12;;;;;;;26.30;15.93;;;7.00;99.90;;;;;;4156616;28;20042;-78
2021/04/30 00:10:13;;;;;;;41.13;18.75;;;6.90;99.90;;;;;;4132026;28;20065;-78
2021/04/30 00:12:14;;;;;;;32.63;17.55;;;7.00;99.90;;;;;;4143346;28;20026;-79
2021/04/30 00:14:18;;;;;;;42.38;16.63;;;6.90;99.90;;;;;;4147580;28;20038;-78
2021/04/30 00:16:19;;;;;;;38.13;17.73;;;7.00;99.90;;;;;;4148215;28;20030;-78
2021/04/30 00:18:20;;;;;;;43.40;17.88;;;7.00;99.90;;;;;;4148145;28;21016;-76
2021/04/30 00:20:21;;;;;;;30.45;15.07;;;7.00;99.90;;;;;;4147371;28;20054;-79
2021/04/30 00:22:21;;;;;;;50.83;17.17;;;7.00;99.90;;;;;;4148604;28;20036;-79
2021/04/30 00:24:23;;;;;;;33.95;15.88;;;7.10;99.90;;;;;;4147160;28;20551;-77
2021/04/30 00:26:23;;;;;;;48.08;18.35;;;7.10;99.90;;;;;;4146988;28;20117;-77
2021/04/30 00:28:24;;;;;;;41.78;18.48;;;7.00;99.90;;;;;;4160056;28;20060;-77
2021/04/30 00:30:25;;;;;;;38.35;18.98;;;6.90;99.90;;;;;;4136927;28;20493;-78
2021/04/30 00:32:26;;;;;;;49.03;18.73;;;6.90;99.90;;;;;;4139443;28;20046;-78
2021/04/30 00:34:27;;;;;;;47.67;19.08;;;7.00;99.90;;;;;;4145694;28;20030;-78
2021/04/30 00:36:28;;;;;;;32.60;17.27;;;6.90;99.90;;;;;;4164279;28;20033;-78
2021/04/30 00:38:29;;;;;;;44.63;17.23;;;7.00;99.90;;;;;;4147299;28;20053;-78
2021/04/30 00:40:30;;;;;;;36.28;17.60;;;7.00;99.90;;;;;;4143514;28;20096;-78
2021/04/30 00:42:31;;;;;;;36.15;17.17;;;7.00;99.90;;;;;;4147761;28;20052;-78
2021/04/30 00:44:32;;;;;;;34.92;19.38;;;7.00;99.90;;;;;;4163433;28;20061;-78
2021/04/30 00:46:33;;;;;;;36.90;19.13;;;6.90;99.90;;;;;;4145859;28;20064;-78
2021/04/30 00:48:34;;;;;;;40.08;18.17;;;7.00;99.90;;;;;;4163395;28;20025;-78
2021/04/30 00:50:35;;;;;;;36.65;18.85;;;6.90;99.90;;;;;;4148800;28;20116;-78
2021/04/30 00:52:37;;;;;;;29.02;18.77;;;6.90;99.90;;;;;;4140676;28;20113;-78
2021/04/30 00:54:38;;;;;;;33.88;17.02;;;7.00;99.90;;;;;;4179906;28;20372;-79
2021/04/30 00:56:39;;;;;;;34.17;18.40;;;7.00;99.90;;;;;;4130843;28;20076;-78
2021/04/30 00:58:40;;;;;;;42.78;18.85;;;7.00;99.90;;;;;;4146919;28;20409;-78
2021/04/30 01:00:41;;;;;;;42.17;18.67;;;6.90;99.90;;;;;;4180298;28;20032;-78
2021/04/30 01:02:42;;;;;;;30.67;17.35;;;6.90;99.90;;;;;;4164224;28;20060;-78
2021/04/30 01:04:43;;;;;;;42.20;21.38;;;6.90;99.90;;;;;;4148021;28;20481;-78
2021/04/30 01:06:44;;;;;;;37.58;18.10;;;6.90;99.90;;;;;;4147504;28;20041;-78
2021/04/30 01:08:45;;;;;;;29.50;16.95;;;6.90;99.90;;;;;;4163634;28;20034;-78
2021/04/30 01:10:45;;;;;;;42.10;19.20;;;7.00;99.90;;;;;;4145086;28;20116;-79
2021/04/30 01:12:47;;;;;;;46.40;19.83;;;7.00;99.90;;;;;;4147801;28;20030;-78
2021/04/30 01:14:49;;;;;;;36.13;18.50;;;7.00;99.90;;;;;;4131544;28;20037;-79
2021/04/30 01:16:51;;;;;;;39.03;18.55;;;7.00;99.90;;;;;;4163668;28;20109;-78
2021/04/30 01:18:51;;;;;;;42.60;20.33;;;6.90;99.90;;;;;;4131283;28;20022;-78
2021/04/30 01:20:52;;;;;;;42.95;21.08;;;6.90;99.90;;;;;;4147553;28;20073;-79
2021/04/30 01:22:54;;;;;;;45.72;20.75;;;6.90;99.90;;;;;;4147485;28;20080;-78
2021/04/30 01:24:57;;;;;;;40.65;20.48;;;6.90;99.90;;;;;;4161280;28;20061;-78
2021/04/30 01:26:58;;;;;;;44.80;19.30;;;6.90;99.90;;;;;;4135744;28;20366;-78
2021/04/30 01:28:58;;;;;;;44.65;20.20;;;6.90;99.90;;;;;;4146381;28;20508;-78
2021/04/30 01:30:59;;;;;;;45.22;19.50;;;6.90;99.90;;;;;;4162744;28;20064;-78
2021/04/30 01:33:01;;;;;;;43.08;21.00;;;7.00;99.90;;;;;;4146678;28;20132;-80
2021/04/30 01:35:05;;;;;;;46.67;20.30;;;7.00;99.90;;;;;;4146480;28;20036;-80
2021/04/30 01:37:06;;;;;;;42.50;20.55;;;6.90;99.90;;;;;;4161051;28;20036;-80
2021/04/30 01:39:12;;;;;;;46.30;22.25;;;6.90;99.90;;;;;;4147432;28;20034;-80
2021/04/30 01:41:12;;;;;;;52.45;22.92;;;6.80;99.90;;;;;;4162824;28;20412;-80
2021/04/30 01:43:19;;;;;;;46.22;20.98;;;6.90;99.90;;;;;;4146383;28;20034;-80
2021/04/30 01:45:20;;;;;;;46.28;20.75;;;6.90;99.90;;;;;;4162798;28;20103;-81
2021/04/30 01:47:21;;;;;;;54.80;22.33;;;6.90;99.90;;;;;;4146017;28;20049;-81
2021/04/30 01:49:21;;;;;;;45.88;20.33;;;6.90;99.90;;;;;;4147571;28;20030;-80
2021/04/30 01:51:22;;;;;;;46.10;20.08;;;6.90;99.90;;;;;;4162556;28;20167;-81
2021/04/30 01:53:37;;;;;;;43.88;20.88;;;6.90;99.90;;;;;;4146467;28;20082;-80
2021/04/30 01:55:39;;;;;;;42.83;20.30;;;6.90;99.90;;;;;;4162730;28;20037;-79
2021/04/30 01:57:46;;;;;;;46.03;21.55;;;7.00;99.90;;;;;;4162893;28;20034;-80
2021/04/30 01:59:47;;;;;;;46.88;20.75;;;7.00;99.90;;;;;;4130919;28;20046;-79
2021/04/30 02:01:48;;;;;;;45.20;21.25;;;7.10;99.90;;;;;;4147362;28;20038;-79
2021/04/30 02:03:49;;;;;;;48.45;19.77;;;7.00;99.90;;;;;;4147254;28;20041;-81
2021/04/30 02:05:50;;;;;;;41.90;20.13;;;7.00;99.90;;;;;;4147189;28;20038;-79
2021/04/30 02:07:51;;;;;;;48.50;20.80;;;7.00;99.90;;;;;;4150062;28;20108;-80
2021/04/30 02:09:51;;;;;;;46.35;23.10;;;7.00;99.90;;;;;;4147288;28;20041;-81
2021/04/30 02:11:53;;;;;;;55.30;22.42;;;7.00;99.90;;;;;;4163168;28;20112;-80
2021/04/30 02:13:53;;;;;;;52.13;22.27;;;7.10;99.90;;;;;;4147384;28;20073;-80
2021/04/30 02:15:55;;;;;;;46.00;20.45;;;7.00;99.90;;;;;;4146774;28;20061;-80
2021/04/30 02:17:56;;;;;;;44.10;20.63;;;7.00;99.90;;;;;;4162745;28;20072;-80
2021/04/30 02:19:57;;;;;;;52.25;21.77;;;7.10;99.90;;;;;;4163151;28;20037;-80
2021/04/30 02:21:58;;;;;;;42.85;20.15;;;7.10;99.90;;;;;;4163312;28;20068;-81
2021/04/30 02:24:00;;;;;;;54.50;20.50;;;7.10;99.90;;;;;;4163399;28;20033;-81
2021/04/30 02:26:01;;;;;;;42.20;20.77;;;7.10;99.90;;;;;;4151690;28;20041;-80
2021/04/30 02:28:03;;;;;;;37.58;16.67;;;7.10;99.90;;;;;;4145686;28;20120;-79
2021/04/30 02:30:07;;;;;;;43.47;20.10;;;7.20;99.90;;;;;;4146975;28;20400;-80
2021/04/30 02:32:08;;;;;;;36.88;18.88;;;7.20;99.90;;;;;;4168855;28;20041;-80
2021/04/30 02:34:09;;;;;;;47.63;19.13;;;7.20;99.90;;;;;;4130140;28;20035;-81
2021/04/30 02:36:10;;;;;;;45.38;20.80;;;7.10;99.90;;;;;;4148062;28;20048;-80
2021/04/30 02:38:17;;;;;;;47.08;19.30;;;7.10;99.90;;;;;;4163125;28;20037;-81
2021/04/30 02:40:21;;;;;;;48.60;20.02;;;7.10;99.90;;;;;;4146701;28;20042;-80
2021/04/30 02:42:21;;;;;;;;;;;7.00;99.90;;;;;;4154246;28;20050;-80
2021/04/30 02:44:22;;;;;;;41.53;19.05;;;7.00;99.90;;;;;;4147095;28;20522;-80
2021/04/30 02:46:24;;;;;;;45.47;20.13;;;7.10;99.90;;;;;;4161861;28;20116;-79
2021/04/30 02:48:33;;;;;;;37.13;19.40;;;7.00;99.90;;;;;;4145281;28;20037;-80
2021/04/30 02:50:34;;;;;;;53.83;20.00;;;7.10;99.90;;;;;;4132174;28;20053;-80
2021/04/30 02:52:34;;;;;;;49.00;21.48;;;7.00;99.90;;;;;;4145250;28;20565;-81
2021/04/30 02:54:37;;;;;;;44.78;21.13;;;7.00;99.90;;;;;;4129442;28;20645;-81
2021/04/30 02:56:38;;;;;;;51.28;22.02;;;7.00;99.90;;;;;;4123839;28;20034;-80
2021/04/30 02:58:39;;;;;;;49.67;22.35;;;7.10;99.90;;;;;;4142658;28;20036;-80
2021/04/30 03:00:40;;;;;;;47.92;20.52;;;7.00;99.90;;;;;;4161916;28;20111;-80
2021/04/30 03:02:40;;;;;;;49.42;21.52;;;7.00;99.90;;;;;;4146660;28;20045;-80
2021/04/30 03:04:41;;;;;;;37.83;20.63;;;7.10;99.90;;;;;;4162481;28;20443;-80
2021/04/30 03:06:42;;;;;;;44.00;22.10;;;7.10;99.90;;;;;;4146234;28;20568;-80
2021/04/30 03:08:43;;;;;;;44.90;21.65;;;7.00;99.90;;;;;;4125297;28;20070;-79
2021/04/30 03:10:44;;;;;;;44.67;22.27;;;7.10;99.90;;;;;;4147194;28;20034;-81
2021/04/30 03:12:48;;;;;;;44.42;22.85;;;7.00;99.90;;;;;;4162390;28;20801;-79
2021/04/30 03:14:50;;;;;;;45.72;21.67;;;7.00;99.90;;;;;;4147530;28;20054;-80
2021/04/30 03:16:51;;;;;;;58.22;22.95;;;7.00;99.90;;;;;;4162204;28;20034;-79
2021/04/30 03:18:52;;;;;;;48.08;22.13;;;7.00;99.90;;;;;;4129836;28;20090;-79
2021/04/30 03:20:55;;;;;;;48.58;20.48;;;7.10;99.90;;;;;;4162426;28;20041;-78
2021/04/30 03:22:56;;;;;;;49.33;22.60;;;7.20;99.90;;;;;;4147517;28;20029;-81
2021/04/30 03:24:56;;;;;;;41.15;20.20;;;7.20;99.90;;;;;;4162609;28;20056;-79
2021/04/30 03:26:57;;;;;;;48.97;22.27;;;7.20;99.90;;;;;;4146228;28;20038;-78
2021/04/30 03:28:58;;;;;;;44.88;21.25;;;7.20;99.90;;;;;;4145881;28;20030;-80
2021/04/30 03:30:59;;;;;;;45.85;21.30;;;7.20;99.90;;;;;;4145921;28;20037;-80
2021/04/30 03:33:00;;;;;;;45.15;21.83;;;7.10;99.90;;;;;;4129445;28;20440;-80
2021/04/30 03:35:00;;;;;;;49.78;21.98;;;7.10;99.90;;;;;;4145707;28;20041;-80
2021/04/30 03:37:02;;;;;;;44.85;24.02;;;7.10;99.90;;;;;;4145463;28;20021;-80
2021/04/30 03:39:07;;;;;;;49.05;22.33;;;7.00;99.90;;;;;;4144778;28;20061;-81
2021/04/30 03:41:08;;;;;;;43.05;22.23;;;7.10;99.90;;;;;;4158503;28;20035;-80
2021/04/30 03:43:09;;;;;;;52.67;22.55;;;7.10;99.90;;;;;;4129224;28;20109;-78
2021/04/30 03:45:11;;;;;;;50.67;22.10;;;7.10;99.90;;;;;;4162057;28;20071;-79
2021/04/30 03:47:11;;;;;;;43.67;21.95;;;7.10;99.90;;;;;;4162047;28;20465;-80
2021/04/30 03:49:12;;;;;;;51.67;22.55;;;7.10;99.90;;;;;;4145739;28;20036;-80
2021/04/30 03:51:13;;;;;;;46.03;22.42;;;7.10;99.90;;;;;;4162156;28;20059;-80
2021/04/30 03:53:14;;;;;;;47.03;21.75;;;7.10;99.90;;;;;;4145832;28;20034;-80
2021/04/30 03:55:16;;;;;;;41.88;23.20;;;7.10;99.90;;;;;;4146071;28;20088;-80
2021/04/30 03:57:17;;;;;;;49.33;23.38;;;7.10;99.90;;;;;;4145782;28;20057;-80
2021/04/30 03:59:18;;;;;;;48.53;22.90;;;7.10;99.90;;;;;;4134062;28;20046;-80
2021/04/30 04:01:20;;;;;;;50.95;24.23;;;7.10;99.90;;;;;;4145261;28;20579;-80
2021/04/30 04:03:20;;;;;;;53.25;24.25;;;7.00;99.90;;;;;;4140174;28;20053;-80
2021/04/30 04:05:21;;;;;;;48.80;25.38;;;7.00;99.90;;;;;;4144116;28;20054;-80
2021/04/30 04:07:28;;;;;;;51.75;25.55;;;7.00;99.90;;;;;;4141064;28;20034;-80
2021/04/30 04:09:29;;;;;;;53.97;23.00;;;7.00;99.90;;;;;;4136412;28;20077;-79
2021/04/30 04:11:30;;;;;;;57.92;26.45;;;7.00;99.90;;;;;;4153170;28;20056;-80
2021/04/30 04:13:32;;;;;;;52.53;26.42;;;7.00;99.90;;;;;;4145982;28;20030;-80
2021/04/30 04:15:33;;;;;;;57.03;25.88;;;7.00;99.90;;;;;;4145482;28;20378;-80
2021/04/30 04:17:35;;;;;;;66.35;27.75;;;7.00;99.90;;;;;;4146288;28;20037;-80
2021/04/30 04:19:35;;;;;;;64.43;26.70;;;7.00;99.90;;;;;;4139973;28;20505;-79
2021/04/30 04:21:36;;;;;;;60.95;27.35;;;7.00;99.90;;;;;;4156240;28;20034;-79
2021/04/30 04:23:37;;;;;;;53.80;27.50;;;7.00;99.90;;;;;;4142505;28;20082;-80
2021/04/30 04:25:39;;;;;;;54.60;25.48;;;7.00;99.90;;;;;;4177607;28;20025;-80
2021/04/30 04:27:40;;;;;;;62.78;26.35;;;7.00;99.90;;;;;;4143068;28;20041;-80
2021/04/30 04:29:40;;;;;;;49.13;26.20;;;7.10;99.90;;;;;;4147839;28;20522;-80
2021/04/30 04:31:41;;;;;;;58.97;26.35;;;7.10;99.90;;;;;;4144161;28;20114;-80
2021/04/30 04:33:42;;;;;;;54.20;24.83;;;7.00;99.90;;;;;;4141153;28;20516;-80
2021/04/30 04:35:43;;;;;;;53.10;25.75;;;7.00;99.90;;;;;;4172614;28;20037;-80
2021/04/30 04:37:44;;;;;;;52.20;26.75;;;7.10;99.90;;;;;;4128968;28;20041;-80
2021/04/30 04:39:45;;;;;;;57.83;26.30;;;7.20;99.90;;;;;;4128992;28;20041;-79
2021/04/30 04:41:47;;;;;;;60.70;28.02;;;7.20;99.90;;;;;;4155042;28;20040;-80
2021/04/30 04:43:47;;;;;;;61.80;28.08;;;7.20;99.90;;;;;;4140258;28;20041;-79
2021/04/30 04:45:48;;;;;;;57.22;27.95;;;7.20;99.90;;;;;;4133891;28;20026;-80
2021/04/30 04:47:49;;;;;;;53.55;28.42;;;7.20;99.90;;;;;;4152526;28;20532;-78
2021/04/30 04:49:50;;;;;;;54.50;26.52;;;7.20;99.90;;;;;;4138669;28;20037;-80
2021/04/30 04:51:52;;;;;;;51.72;25.67;;;7.30;99.90;;;;;;4160361;28;20037;-79
2021/04/30 04:53:53;;;;;;;49.28;25.25;;;7.30;99.90;;;;;;4140935;28;20509;-79
2021/04/30 04:55:54;;;;;;;50.00;23.95;;;7.40;99.90;;;;;;4130919;28;20039;-79
2021/04/30 04:57:55;;;;;;;58.63;27.00;;;7.40;99.90;;;;;;4146812;28;20026;-80
2021/04/30 04:59:56;;;;;;;46.38;25.40;;;7.40;99.90;;;;;;4175386;28;20158;-80
2021/04/30 05:01:57;;;;;;;55.42;27.08;;;7.40;99.90;;;;;;4131255;28;20089;-79
2021/04/30 05:03:58;;;;;;;53.38;25.40;;;7.40;99.90;;;;;;4164125;28;20053;-79
2021/04/30 05:05:59;;;;;;;48.63;26.38;;;7.40;99.90;;;;;;4148204;28;20041;-79
2021/04/30 05:08:00;;;;;;;55.55;25.80;;;7.30;99.90;;;;;;4179251;28;20052;-79
2021/04/30 05:10:01;;;;;;;48.45;25.23;;;7.40;99.90;;;;;;4146939;28;20040;-79
2021/04/30 05:12:02;;;;;;;44.40;27.95;;;7.40;99.90;;;;;;4145289;28;20034;-79
2021/04/30 05:14:03;;;;;;;56.33;28.33;;;7.40;99.90;;;;;;4145122;28;20036;-79
2021/04/30 05:16:05;;;;;;;56.47;30.10;;;7.40;99.90;;;;;;4146354;28;20092;-80
2021/04/30 05:18:06;;;;;;;59.83;29.20;;;7.40;99.90;;;;;;4147693;28;20030;-80
2021/04/30 05:20:07;;;;;;;59.00;29.27;;;7.50;99.90;;;;;;4147607;28;20030;-80
2021/04/30 05:22:13;;;;;;;49.92;26.67;;;7.50;99.90;;;;;;4161134;28;20452;-80
2021/04/30 05:24:14;;;;;;;58.35;26.63;;;7.60;99.90;;;;;;4145148;28;20124;-80
2021/04/30 05:26:16;;;;;;;50.63;25.42;;;7.60;99.90;;;;;;4151561;28;20034;-80
2021/04/30 05:28:17;;;;;;;57.05;27.33;;;7.60;99.90;;;;;;4144983;28;20380;-80
2021/04/30 05:30:18;;;;;;;50.05;27.27;;;7.60;99.90;;;;;;4129831;28;20073;-80
2021/04/30 05:32:19;;;;;;;54.05;29.15;;;7.60;99.90;;;;;;4155657;28;20037;-80
2021/04/30 05:34:19;;;;;;;48.83;28.52;;;7.60;99.90;;;;;;4154827;28;20420;-80
2021/04/30 05:36:20;;;;;;;47.67;27.77;;;7.60;99.90;;;;;;4144499;28;20042;-80
2021/04/30 05:38:21;;;;;;;56.75;29.00;;;7.70;99.90;;;;;;4147428;28;20038;-78
2021/04/30 05:40:22;;;;;;;52.90;28.48;;;7.70;99.90;;;;;;4128380;28;20047;-79
2021/04/30 05:42:22;;;;;;;49.75;27.73;;;7.70;99.90;;;;;;4160872;28;20171;-78
2021/04/30 05:44:23;;;;;;;54.15;27.55;;;7.70;99.90;;;;;;4147270;28;20505;-79
2021/04/30 05:46:24;;;;;;;47.70;27.35;;;7.70;99.90;;;;;;4146956;28;20034;-79
2021/04/30 05:48:27;;;;;;;56.83;30.67;;;7.70;99.90;;;;;;4146969;28;20493;-79
2021/04/30 05:50:28;;;;;;;57.55;27.95;;;7.70;99.90;;;;;;4147387;28;20557;-80
2021/04/30 05:52:29;;;;;;;57.65;29.55;;;7.70;99.90;;;;;;4131108;28;20092;-79
2021/04/30 05:54:31;;;;;;;56.78;29.67;;;7.70;99.90;;;;;;4146677;28;20061;-80
2021/04/30 05:56:31;;;;;;;56.95;29.98;;;7.60;99.90;;;;;;4140578;28;20061;-79
2021/04/30 05:58:32;;;;;;;52.08;27.40;;;7.60;99.90;;;;;;4153624;28;20153;-80
2021/04/30 06:00:35;;;;;;;52.03;27.98;;;7.60;99.90;;;;;;4147203;28;20129;-79
2021/04/30 06:02:37;;;;;;;61.85;30.42;;;7.60;99.90;;;;;;4147829;28;20485;-80
2021/04/30 06:04:37;;;;;;;56.50;31.55;;;7.60;99.90;;;;;;4147084;28;20038;-80
2021/04/30 06:06:38;;;;;;;57.33;32.95;;;7.60;99.90;;;;;;4163677;28;20443;-80
2021/04/30 06:08:39;;;;;;;55.75;31.17;;;7.60;99.90;;;;;;4148210;28;20456;-80
2021/04/30 06:10:40;;;;;;;58.97;30.42;;;7.60;99.90;;;;;;4146578;28;20030;-80
2021/04/30 06:12:42;;;;;;;58.83;32.05;;;7.60;99.90;;;;;;4147274;28;20041;-80
2021/04/30 06:14:42;;;;;;;57.63;31.00;;;7.60;99.90;;;;;;4147144;28;20042;-80
2021/04/30 06:16:43;;;;;;;54.45;34.03;;;7.70;99.90;;;;;;4148115;28;20053;-80
2021/04/30 06:18:44;;;;;;;75.70;35.10;;;7.70;99.90;;;;;;4163210;28;20477;-80
2021/04/30 06:20:45;;;;;;;57.92;31.63;;;7.80;99.90;;;;;;4133621;28;20491;-80
2021/04/30 06:22:45;;;;;;;63.75;32.83;;;7.90;99.90;;;;;;4144248;28;20041;-81
2021/04/30 06:24:46;;;;;;;47.80;30.73;;;7.90;99.90;;;;;;4133121;28;20041;-80
2021/04/30 06:26:47;;;;;;;55.40;34.78;;;8.00;99.90;;;;;;4131107;28;20038;-81
2021/04/30 06:28:48;;;;;;;54.45;30.88;;;8.10;99.90;;;;;;4143191;28;20068;-81
2021/04/30 06:30:51;;;;;;;51.00;31.67;;;8.10;99.90;;;;;;4158950;28;20112;-80
2021/04/30 06:32:51;;;;;;;49.67;31.33;;;8.10;99.90;;;;;;4155414;28;20696;-80
2021/04/30 06:34:52;;;;;;;43.80;29.08;;;8.20;99.90;;;;;;4142705;28;20317;-80
2021/04/30 06:36:54;;;;;;;49.55;29.88;;;8.20;99.90;;;;;;4138477;28;20137;-80
2021/04/30 06:38:56;;;;;;;60.90;30.48;;;8.20;99.90;;;;;;4161706;28;20025;-80
2021/04/30 06:40:57;;;;;;;45.80;29.45;;;8.30;99.90;;;;;;4160773;28;20025;-80
2021/04/30 06:42:58;;;;;;;51.22;29.13;;;8.30;99.90;;;;;;4129520;28;20066;-80
2021/04/30 06:44:58;;;;;;;49.75;30.15;;;8.40;99.90;;;;;;4145139;28;20437;-81
2021/04/30 06:46:59;;;;;;;47.92;30.95;;;8.40;99.90;;;;;;4153104;28;20033;-80
2021/04/30 06:49:01;;;;;;;48.08;29.65;;;8.40;99.90;;;;;;4142266;28;20038;-80
2021/04/30 06:51:02;;;;;;;50.38;33.28;;;8.40;99.90;;;;;;4146940;28;20055;-80
2021/04/30 06:53:03;;;;;;;44.38;30.15;;;8.50;99.90;;;;;;4161285;28;20033;-80
2021/04/30 06:55:07;;;;;;;50.63;29.38;;;8.60;99.90;;;;;;4144730;28;20103;-81
2021/04/30 06:57:09;;;;;;;54.95;30.67;;;8.60;99.90;;;;;;4161362;28;20112;-80
2021/04/30 06:59:09;;;;;;;54.90;32.55;;;8.70;99.90;;;;;;4161859;28;22024;-80
2021/04/30 07:01:11;;;;;;;52.28;29.92;;;8.80;99.90;;;;;;4145654;28;20034;-81
2021/04/30 07:03:12;;;;;;;47.30;30.27;;;8.80;99.90;;;;;;4143275;28;20038;-79
2021/04/30 07:05:15;;;;;;;56.25;30.85;;;;;;;;;;4145266;28;20304;-79
2021/04/30 07:07:16;;;;;;;46.28;28.63;;;9.10;99.90;;;;;;4158298;28;20041;-80
2021/04/30 07:09:17;;;;;;;40.03;27.52;;;9.30;99.90;;;;;;4149797;28;20041;-80
2021/04/30 07:11:18;;;;;;;50.63;27.75;;;9.40;99.90;;;;;;4145606;28;20122;-81
2021/04/30 07:13:21;;;;;;;48.10;29.75;;;9.50;99.90;;;;;;4145382;28;20038;-81
2021/04/30 07:15:22;;;;;;;48.47;28.75;;;9.50;99.90;;;;;;4143300;28;20042;-81
2021/04/30 07:17:22;;;;;;;46.97;28.58;;;9.70;99.90;;;;;;4127011;28;20385;-80
2021/04/30 07:19:24;;;;;;;47.90;28.95;;;9.80;99.90;;;;;;4156194;28;20029;-82
2021/04/30 07:21:25;;;;;;;42.85;29.45;;;9.80;99.90;;;;;;4145192;28;20045;-74
2021/04/30 07:23:27;;;;;;;49.92;31.25;;;9.80;99.90;;;;;;4178233;28;20025;-74
2021/04/30 07:25:28;;;;;;;44.67;30.90;;;9.80;99.90;;;;;;4143254;28;20040;-72
2021/04/30 07:27:29;;;;;;;59.28;31.40;;;9.40;99.90;;;;;;4157918;28;20037;-72
2021/04/30 07:29:30;;;;;;;48.83;30.98;;;9.30;99.90;;;;;;4144500;28;20049;-72
2021/04/30 07:31:31;;;;;;;46.97;34.40;;;9.20;99.90;;;;;;4158300;28;20385;-72
2021/04/30 07:33:32;;;;;;;45.92;32.65;;;9.20;99.90;;;;;;4144406;28;20045;-74
2021/04/30 07:35:32;;;;;;;45.80;31.05;;;9.20;99.90;;;;;;4144362;28;20076;-72
2021/04/30 07:37:33;;;;;;;48.90;31.80;;;9.10;99.90;;;;;;4144099;28;20033;-73
2021/04/30 07:39:35;;;;;;;46.80;30.58;;;9.20;99.90;;;;;;4143838;28;20057;-73
2021/04/30 07:41:36;;;;;;;44.22;30.52;;;9.40;99.90;;;;;;4144368;28;20035;-72
2021/04/30 07:43:37;;;;;;;48.08;31.08;;;9.60;99.90;;;;;;4155946;28;20041;-72
2021/04/30 07:45:40;;;;;;;41.60;29.20;;;9.90;99.90;;;;;;4144005;28;20037;-73
2021/04/30 07:47:41;;;;;;;43.80;28.03;;;10.30;99.90;;;;;;4146171;28;20527;-73
2021/04/30 07:49:41;;;;;;;40.85;28.95;;;10.50;99.90;;;;;;4144570;28;20368;-73
2021/04/30 07:51:42;;;;;;;48.10;29.88;;;10.50;99.90;;;;;;4145885;28;20064;-73
2021/04/30 07:53:43;;;;;;;51.30;31.50;;;10.30;99.90;;;;;;4144463;28;20048;-73
2021/04/30 07:55:44;;;;;;;43.88;32.55;;;10.30;99.90;;;;;;4145283;28;20084;-73
2021/04/30 07:57:45;;;;;;;41.75;29.45;;;10.40;99.90;;;;;;4142337;28;20038;-74
2021/04/30 07:59:46;;;;;;;44.95;30.00;;;10.50;99.90;;;;;;4138210;28;20409;-73
2021/04/30 08:01:47;;;;;;;42.67;28.30;;;10.60;99.90;;;;;;4142644;28;20033;-73
2021/04/30 08:03:47;;;;;;;45.13;31.25;;;10.60;99.90;;;;;;4137403;28;20042;-74
2021/04/30 08:05:49;;;;;;;37.05;30.60;;;10.40;99.90;;;;;;4152431;28;20032;-74
2021/04/30 08:07:51;;;;;;;46.88;29.70;;;10.30;99.90;;;;;;4143864;28;20034;-73
2021/04/30 08:09:54;;;;;;;46.20;30.20;;;10.30;99.90;;;;;;4144639;28;20041;-73
2021/04/30 08:11:54;;;;;;;45.47;30.00;;;10.20;99.90;;;;;;4135496;28;20040;-74
2021/04/30 08:13:55;;;;;;;43.45;31.23;;;10.30;99.90;;;;;;4145192;28;20132;-73
2021/04/30 08:15:56;;;;;;;39.25;30.05;;;10.20;99.90;;;;;;4153539;28;20049;-73
2021/04/30 08:17:58;;;;;;;39.92;30.35;;;10.20;99.90;;;;;;4143006;28;20041;-73
2021/04/30 08:19:59;;;;;;;38.90;28.92;;;10.30;99.90;;;;;;4143644;28;20497;-73
2021/04/30 08:22:00;;;;;;;38.55;30.35;;;8.40;99.90;;;;;;4161046;28;20034;-73
2021/04/30 08:24:02;;;;;;;35.75;28.58;;;11.00;99.90;;;;;;4143718;28;20384;-73
2021/04/30 08:26:02;;;;;;;36.28;25.60;;;11.30;99.90;;;;;;4146340;28;20026;-74
2021/04/30 08:28:04;;;;;;;38.40;28.95;;;11.30;99.90;;;;;;4147952;28;20601;-74
2021/04/30 08:30:05;;;;;;;38.78;28.25;;;11.40;99.90;;;;;;4146053;28;20030;-74
2021/04/30 08:32:06;;;;;;;37.22;28.65;;;11.30;99.90;;;;;;4164357;28;20112;-74
2021/04/30 08:34:07;;;;;;;37.47;28.88;;;11.20;99.90;;;;;;4148491;28;20034;-74
2021/04/30 08:36:08;;;;;;;42.15;26.73;;;11.00;99.90;;;;;;4141729;28;20030;-74
2021/04/30 08:38:09;;;;;;;35.22;26.20;;;11.10;99.90;;;;;;4147597;28;20033;-72
2021/04/30 08:40:11;;;;;;;36.75;27.98;;;11.10;99.90;;;;;;4147658;28;20036;-72
2021/04/30 08:42:12;;;;;;;37.40;27.63;;;11.20;99.90;;;;;;4148589;28;20587;-73
2021/04/30 08:44:13;;;;;;;32.38;27.27;;;11.10;99.90;;;;;;4155052;28;20068;-73
2021/04/30 08:46:14;;;;;;;38.47;29.45;;;10.90;99.90;;;;;;4147134;28;20121;-73
2021/04/30 08:48:15;;;;;;;54.38;31.65;;;10.70;99.90;;;;;;4148810;28;20038;-74
2021/04/30 08:50:17;;;;;;;43.60;32.25;;;10.40;99.90;;;;;;4145825;28;20528;-74
2021/04/30 08:52:19;;;;;;;48.08;31.88;;;10.20;99.90;;;;;;4147133;28;20049;-73
2021/04/30 08:54:19;;;;;;;49.50;31.15;;;10.10;99.90;;;;;;4147347;28;20034;-73
2021/04/30 08:56:20;;;;;;;45.55;33.35;;;9.90;99.90;;;;;;4145379;28;20038;-73
2021/04/30 08:58:25;;;;;;;46.92;34.25;;;9.80;99.90;;;;;;4147149;28;20041;-73
2021/04/30 09:00:28;;;;;;;38.25;30.67;;;9.70;99.90;;;;;;4161479;28;20481;-74
2021/04/30 09:02:32;;;;;;;39.60;30.90;;;9.60;99.90;;;;;;4161332;28;20033;-74
2021/04/30 09:04:34;;;;;;;43.33;29.73;;;9.60;99.90;;;;;;4146490;28;20418;-73
2021/04/30 09:06:41;;;;;;;48.90;31.48;;;9.50;99.90;;;;;;4154606;28;20033;-74
2021/04/30 09:08:47;;;;;;;46.60;31.90;;;9.40;99.90;;;;;;4162226;28;20069;-74
2021/04/30 09:10:49;;;;;;;46.75;31.73;;;9.20;99.90;;;;;;4130874;28;20603;-82
2021/04/30 09:13:14;;;;;;;43.40;32.65;;;9.10;99.90;;;;;;4146997;28;20033;-81
2021/04/30 09:15:22;;;;;;;46.28;33.55;;;9.10;99.90;;;;;;4146870;28;20080;-80
2021/04/30 09:17:27;;;;;;;48.70;32.65;;;9.00;99.90;;;;;;4147167;28;20045;-80
2021/04/30 09:19:54;;;;;;;49.05;35.78;;;9.00;99.90;;;;;;4131456;28;20054;-82
2021/04/30 09:22:10;;;;;;;46.42;33.53;;;9.10;99.90;;;;;;4139683;28;20412;-81
2021/04/30 09:24:11;;;;;;;45.75;33.28;;;9.00;99.90;;;;;;4141545;28;20125;-81
2021/04/30 09:26:35;;;;;;;43.05;32.00;;;9.10;99.90;;;;;;4146502;28;20049;-80
2021/04/30 09:28:37;;;;;;;52.10;34.63;;;9.20;99.90;;;;;;4146211;28;20034;-81
2021/04/30 09:30:38;;;;;;;52.58;34.03;;;9.30;99.90;;;;;;4155292;28;20033;-81
2021/04/30 09:33:13;;;;;;;43.72;30.90;;;9.30;99.90;;;;;;4147025;28;20067;-81
2021/04/30 09:35:22;;;;;;;50.38;31.98;;;9.40;99.90;;;;;;4146530;28;20565;-81
2021/04/30 09:37:24;;;;;;;43.95;33.88;;;9.50;99.90;;;;;;4144261;28;20030;-81
2021/04/30 09:39:27;;;;;;;44.55;30.48;;;9.60;99.90;;;;;;4137089;28;20208;-82
2021/04/30 09:41:29;;;;;;;43.90;33.08;;;9.60;99.90;;;;;;4146153;28;20478;-82
2021/04/30 09:43:53;;;;;;;49.78;34.65;;;9.40;99.90;;;;;;4146926;28;20500;-81
2021/04/30 09:45:54;;;;;;;45.35;34.10;;;9.60;99.90;;;;;;4157646;28;20121;-81
2021/04/30 09:48:01;;;;;;;51.30;36.15;;;9.70;99.90;;;;;;4146664;28;20121;-81
2021/04/30 09:50:05;;;;;;;48.45;33.67;;;9.70;99.90;;;;;;4161435;28;20251;-81
2021/04/30 09:52:08;;;;;;;43.20;35.65;;;9.70;99.90;;;;;;4161610;28;20025;-81
2021/04/30 09:54:30;;;;;;;47.88;33.03;;;9.70;99.90;;;;;;4145600;28;20046;-81
2021/04/30 09:56:30;;;;;;;46.78;30.77;;;9.90;99.90;;;;;;4145667;28;20521;-80
2021/04/30 09:58:44;;;;;;;43.05;31.52;;;10.30;99.90;;;;;;4146072;28;20042;-82
2021/04/30 10:00:48;;;;;;;43.88;31.10;;;10.10;99.90;;;;;;4158832;28;20045;-82
2021/04/30 10:02:49;;;;;;;43.47;30.23;;;10.40;99.90;;;;;;4123462;28;20038;-82
2021/04/30 10:04:53;;;;;;;39.22;32.05;;;10.60;99.90;;;;;;4162816;28;20439;-81
2021/04/30 10:06:54;;;;;;;39.03;30.88;;;10.50;99.90;;;;;;4138515;28;20040;-82
2021/04/30 10:09:10;;;;;;;35.40;29.83;;;10.50;99.90;;;;;;4143788;28;20045;-81
2021/04/30 10:11:31;;;;;;;36.83;29.02;;;10.50;99.90;;;;;;4155660;28;20033;-82
2021/04/30 10:13:32;;;;;;;38.03;28.13;;;10.50;99.90;;;;;;4145971;28;20524;-81
2021/04/30 10:15:33;;;;;;;34.30;27.88;;;10.30;99.90;;;;;;4141579;28;20088;-81
2021/04/30 10:17:36;;;;;;;35.65;27.52;;;10.70;99.90;;;;;;4161777;28;20037;-81
2021/04/30 10:19:37;;;;;;;36.40;26.67;;;10.90;99.90;;;;;;4145116;28;20076;-81
2021/04/30 10:21:41;;;;;;;37.95;28.92;;;11.10;99.90;;;;;;4146852;28;20053;-80
2021/04/30 10:23:51;;;;;;;33.63;27.48;;;11.00;99.90;;;;;;4136061;28;20045;-79
2021/04/30 10:25:52;;;;;;;38.47;30.63;;;10.90;99.90;;;;;;4155659;28;20080;-80